Bretagne — FNBR — position and weather

sailwx.info

Track history (hours):
 
Tides and Currents Weather Stations Pressure Air Temp Water Temp Dewpoint Dewpoint Depression Visibility Wind Speed Wind Dir Waves Ship Positions

Bretagne

Operator: Brittany Ferries

Last reported at 2015-Mar-29 22:05 UTC. Time now 2015-Mar-30 02:19 UTC.
Position N 50°18' W 001°28'.

Length 151 m; beam 27 m.

Type: Ship. MMSI: 227286000.

Date/timePositionNaut miles runAvg speedWind from/ knotsBaromVisibWave heightAir tempDewpointWater temp
2015-Mar-29 22:05N 50°18' W 001°28'814.6
2015-Mar-29 21:33N 50°24' W 001°21'1414.5
2015-Mar-29 20:34N 50°36' W 001°08'1111.5
2015-Mar-29 19:33N 50°47' W 001°07'1 1.5
2015-Mar-29 18:33N 50°49' W 001°06'0 0.0
2015-Mar-29 17:33N 50°49' W 001°06'0 0.0
2015-Mar-29 16:33N 50°49' W 001°06'0 0.0
2015-Mar-29 15:33N 50°49' W 001°06'0 0.0
2015-Mar-29 14:33N 50°49' W 001°06'0 0.0
2015-Mar-29 13:33N 50°49' W 001°06'0 0.0
2015-Mar-29 12:33N 50°49' W 001°06'0 0.0
2015-Mar-29 11:33N 50°49' W 001°06'0 0.0
2015-Mar-29 10:33N 50°49' W 001°06'0 0.0
2015-Mar-29 09:33N 50°49' W 001°06'0 0.0
2015-Mar-29 08:33N 50°49' W 001°06'0 0.0
2015-Mar-29 07:33N 50°49' W 001°06'2 1.8
2015-Mar-29 06:33N 50°47' W 001°06'10 9.6
2015-Mar-29 05:33N 50°37' W 001°07'1818.0
2015-Mar-29 04:32N 50°22' W 001°24'2 0.1
2015-Mar-27 22:29N 50°24' W 001°21'1516.2
2015-Mar-27 21:33N 50°36' W 001°07'1111.0
2015-Mar-27 20:33N 50°47' W 001°06'2 1.7
2015-Mar-27 19:33N 50°49' W 001°06'0 0.0
2015-Mar-27 18:30N 50°49' W 001°06'0 0.0
2015-Mar-27 17:33N 50°49' W 001°06'0 0.0
2015-Mar-27 16:31N 50°49' W 001°06'0 0.0
2015-Mar-27 15:33N 50°49' W 001°06'0 0.0
2015-Mar-27 14:31N 50°49' W 001°06'0 0.0
2015-Mar-27 13:30N 50°49' W 001°06'0 0.0
2015-Mar-27 12:34N 50°49' W 001°06'0 0.0
2015-Mar-27 11:33N 50°49' W 001°06'0 0.0
2015-Mar-27 10:34N 50°49' W 001°06'0 0.0
2015-Mar-27 09:33N 50°49' W 001°06'0 0.0
2015-Mar-27 08:30N 50°49' W 001°06'0 0.2
2015-Mar-27 07:34N 50°49' W 001°06'1212.0
2015-Mar-27 06:33N 50°37' W 001°06'4 4.4
2015-Mar-27 05:34N 50°32' W 001°08'8 8.3
2015-Mar-27 04:34N 50°24' W 001°11'10 0.3
2015-Mar-25 23:27N 50°18' W 001°23'1213.3
2015-Mar-25 22:33N 50°28' W 001°13'1313.3
2015-Mar-25 21:33N 50°39' W 001°01'1010.3
2015-Mar-25 20:33N 50°48' W 001°07'1 0.7
2015-Mar-25 19:33N 50°49' W 001°06'0 0.0
2015-Mar-25 18:33N 50°49' W 001°06'0 0.0
2015-Mar-25 17:33N 50°49' W 001°06'0 0.0
2015-Mar-25 16:33N 50°49' W 001°06'0 0.0
2015-Mar-25 15:33N 50°49' W 001°06'0 0.0
2015-Mar-25 14:33N 50°49' W 001°06'0 0.0
2015-Mar-25 13:33N 50°49' W 001°06'0 0.0
2015-Mar-25 12:33N 50°49' W 001°06'0 0.0
2015-Mar-25 11:33N 50°49' W 001°06'0 0.0
2015-Mar-25 10:33N 50°49' W 001°06'0 0.0
2015-Mar-25 09:33N 50°49' W 001°06'0 0.0
2015-Mar-25 08:33N 50°49' W 001°06'1 0.5
2015-Mar-25 07:33N 50°49' W 001°07'1111.3
2015-Mar-25 06:33N 50°38' W 001°02'1716.2
2015-Mar-25 05:32N 50°24' W 001°18'9 0.3
2015-Mar-23 23:18N 50°19' W 001°29'1012.9
2015-Mar-23 22:33N 50°26' W 001°20'1212.0
2015-Mar-23 21:33N 50°36' W 001°08'1111.0
2015-Mar-23 20:34N 50°46' W 001°06'2 2.1
2015-Mar-23 19:31N 50°49' W 001°06'0 0.0
2015-Mar-23 18:31N 50°49' W 001°06'4 4.0
2015-Mar-23 17:33N 50°45' W 001°05'1414.1
2015-Mar-23 16:33N 50°32' W 001°13'18 1.1
2015-Mar-22 23:26N 50°16' W 001°28'1213.4
2015-Mar-22 22:34N 50°26' W 001°18'1212.2
2015-Mar-22 21:33N 50°36' W 001°08'1111.1
2015-Mar-22 20:34N 50°48' W 001°07'1 1.2
2015-Mar-22 19:31N 50°49' W 001°06'0 0.0
2015-Mar-22 18:31N 50°49' W 001°06'0 0.0
2015-Mar-22 17:31N 50°49' W 001°06'0 0.0
2015-Mar-22 16:31N 50°49' W 001°06'0 0.0
2015-Mar-22 15:31N 50°49' W 001°06'0 0.0
2015-Mar-22 14:31N 50°49' W 001°06'0 0.0
2015-Mar-22 13:31N 50°49' W 001°06'0 0.0
2015-Mar-22 12:31N 50°49' W 001°06'0 0.0
2015-Mar-22 11:31N 50°49' W 001°06'0 0.0
2015-Mar-22 10:31N 50°49' W 001°06'0 0.0
2015-Mar-22 09:31N 50°49' W 001°06'0 0.0
2015-Mar-22 08:31N 50°49' W 001°06'1 0.5
2015-Mar-22 07:33N 50°49' W 001°07'1211.6
2015-Mar-22 06:33N 50°37' W 001°01'1211.9
2015-Mar-22 05:33N 50°28' W 001°12'46 1.6
2015-Mar-21 01:32N 49°52' W 001°56'2914.1
2015-Mar-20 23:29N 50°14' W 001°28'1314.4
2015-Mar-20 22:33N 50°25' W 001°16'1313.4
2015-Mar-20 21:33N 50°37' W 001°07'1010.3
2015-Mar-20 20:33N 50°48' W 001°07'1 1.2
2015-Mar-20 19:33N 50°49' W 001°06'0 0.0
2015-Mar-20 18:33N 50°49' W 001°06'0 0.0
2015-Mar-20 17:33N 50°49' W 001°06'0 0.0
2015-Mar-20 16:33N 50°49' W 001°06'0 0.0
2015-Mar-20 15:33N 50°49' W 001°06'0 0.0
2015-Mar-20 14:33N 50°49' W 001°06'0 0.0
2015-Mar-20 13:33N 50°49' W 001°06'0 0.0
2015-Mar-20 12:33N 50°49' W 001°06'0 0.0
2015-Mar-20 11:33N 50°49' W 001°06'0 0.0
2015-Mar-20 10:33N 50°49' W 001°06'0 0.0
2015-Mar-20 09:33N 50°49' W 001°06'0 0.0
2015-Mar-20 08:33N 50°49' W 001°06'0 0.1
2015-Mar-20 07:33N 50°49' W 001°06'1311.7
2015-Mar-20 06:27N 50°36' W 001°08'  
Track history (hours):
 
Tides and Currents Weather Stations Pressure Air Temp Water Temp Dewpoint Dewpoint Depression Visibility Wind Speed Wind Dir Waves Ship Positions

Bretagne

Operator: Brittany Ferries

Last reported at 2015-Mar-29 22:05 UTC. Time now 2015-Mar-30 02:19 UTC.
Position N 50°18' W 001°28'.

Length 151 m; beam 27 m.

Type: Ship. MMSI: 227286000.

Date/timePositionNaut miles runAvg speedWind from/ knotsBaromVisibWave heightAir tempDewpointWater temp
2015-Mar-29 22:05N 50°18' W 001°28'814.6
2015-Mar-29 21:33N 50°24' W 001°21'1414.5
2015-Mar-29 20:34N 50°36' W 001°08'1111.5
2015-Mar-29 19:33N 50°47' W 001°07'1 1.5
2015-Mar-29 18:33N 50°49' W 001°06'0 0.0
2015-Mar-29 17:33N 50°49' W 001°06'0 0.0
2015-Mar-29 16:33N 50°49' W 001°06'0 0.0
2015-Mar-29 15:33N 50°49' W 001°06'0 0.0
2015-Mar-29 14:33N 50°49' W 001°06'0 0.0
2015-Mar-29 13:33N 50°49' W 001°06'0 0.0
2015-Mar-29 12:33N 50°49' W 001°06'0 0.0
2015-Mar-29 11:33N 50°49' W 001°06'0 0.0
2015-Mar-29 10:33N 50°49' W 001°06'0 0.0
2015-Mar-29 09:33N 50°49' W 001°06'0 0.0
2015-Mar-29 08:33N 50°49' W 001°06'0 0.0
2015-Mar-29 07:33N 50°49' W 001°06'2 1.8
2015-Mar-29 06:33N 50°47' W 001°06'10 9.6
2015-Mar-29 05:33N 50°37' W 001°07'1818.0
2015-Mar-29 04:32N 50°22' W 001°24'2 0.1
2015-Mar-27 22:29N 50°24' W 001°21'1516.2
2015-Mar-27 21:33N 50°36' W 001°07'1111.0
2015-Mar-27 20:33N 50°47' W 001°06'2 1.7
2015-Mar-27 19:33N 50°49' W 001°06'0 0.0
2015-Mar-27 18:30N 50°49' W 001°06'0 0.0
2015-Mar-27 17:33N 50°49' W 001°06'0 0.0
2015-Mar-27 16:31N 50°49' W 001°06'0 0.0
2015-Mar-27 15:33N 50°49' W 001°06'0 0.0
2015-Mar-27 14:31N 50°49' W 001°06'0 0.0
2015-Mar-27 13:30N 50°49' W 001°06'0 0.0
2015-Mar-27 12:34N 50°49' W 001°06'0 0.0
2015-Mar-27 11:33N 50°49' W 001°06'0 0.0
2015-Mar-27 10:34N 50°49' W 001°06'0 0.0
2015-Mar-27 09:33N 50°49' W 001°06'0 0.0
2015-Mar-27 08:30N 50°49' W 001°06'0 0.2
2015-Mar-27 07:34N 50°49' W 001°06'1212.0
2015-Mar-27 06:33N 50°37' W 001°06'4 4.4
2015-Mar-27 05:34N 50°32' W 001°08'8 8.3
2015-Mar-27 04:34N 50°24' W 001°11'10 0.3
2015-Mar-25 23:27N 50°18' W 001°23'1213.3
2015-Mar-25 22:33N 50°28' W 001°13'1313.3
2015-Mar-25 21:33N 50°39' W 001°01'1010.3
2015-Mar-25 20:33N 50°48' W 001°07'1 0.7
2015-Mar-25 19:33N 50°49' W 001°06'0 0.0
2015-Mar-25 18:33N 50°49' W 001°06'0 0.0
2015-Mar-25 17:33N 50°49' W 001°06'0 0.0
2015-Mar-25 16:33N 50°49' W 001°06'0 0.0
2015-Mar-25 15:33N 50°49' W 001°06'0 0.0
2015-Mar-25 14:33N 50°49' W 001°06'0 0.0
2015-Mar-25 13:33N 50°49' W 001°06'0 0.0
2015-Mar-25 12:33N 50°49' W 001°06'0 0.0
2015-Mar-25 11:33N 50°49' W 001°06'0 0.0
2015-Mar-25 10:33N 50°49' W 001°06'0 0.0
2015-Mar-25 09:33N 50°49' W 001°06'0 0.0
2015-Mar-25 08:33N 50°49' W 001°06'1 0.5
2015-Mar-25 07:33N 50°49' W 001°07'1111.3
2015-Mar-25 06:33N 50°38' W 001°02'1716.2
2015-Mar-25 05:32N 50°24' W 001°18'9 0.3
2015-Mar-23 23:18N 50°19' W 001°29'1012.9
2015-Mar-23 22:33N 50°26' W 001°20'1212.0
2015-Mar-23 21:33N 50°36' W 001°08'1111.0
2015-Mar-23 20:34N 50°46' W 001°06'2 2.1
2015-Mar-23 19:31N 50°49' W 001°06'0 0.0
2015-Mar-23 18:31N 50°49' W 001°06'4 4.0
2015-Mar-23 17:33N 50°45' W 001°05'1414.1
2015-Mar-23 16:33N 50°32' W 001°13'18 1.1
2015-Mar-22 23:26N 50°16' W 001°28'1213.4
2015-Mar-22 22:34N 50°26' W 001°18'1212.2
2015-Mar-22 21:33N 50°36' W 001°08'1111.1
2015-Mar-22 20:34N 50°48' W 001°07'1 1.2
2015-Mar-22 19:31N 50°49' W 001°06'0 0.0
2015-Mar-22 18:31N 50°49' W 001°06'0 0.0
2015-Mar-22 17:31N 50°49' W 001°06'0 0.0
2015-Mar-22 16:31N 50°49' W 001°06'0 0.0
2015-Mar-22 15:31N 50°49' W 001°06'0 0.0
2015-Mar-22 14:31N 50°49' W 001°06'0 0.0
2015-Mar-22 13:31N 50°49' W 001°06'0 0.0
2015-Mar-22 12:31N 50°49' W 001°06'0 0.0
2015-Mar-22 11:31N 50°49' W 001°06'0 0.0
2015-Mar-22 10:31N 50°49' W 001°06'0 0.0
2015-Mar-22 09:31N 50°49' W 001°06'0 0.0
2015-Mar-22 08:31N 50°49' W 001°06'1 0.5
2015-Mar-22 07:33N 50°49' W 001°07'1211.6
2015-Mar-22 06:33N 50°37' W 001°01'1211.9
2015-Mar-22 05:33N 50°28' W 001°12'46 1.6
2015-Mar-21 01:32N 49°52' W 001°56'2914.1
2015-Mar-20 23:29N 50°14' W 001°28'1314.4
2015-Mar-20 22:33N 50°25' W 001°16'1313.4
2015-Mar-20 21:33N 50°37' W 001°07'1010.3
2015-Mar-20 20:33N 50°48' W 001°07'1 1.2
2015-Mar-20 19:33N 50°49' W 001°06'0 0.0
2015-Mar-20 18:33N 50°49' W 001°06'0 0.0
2015-Mar-20 17:33N 50°49' W 001°06'0 0.0
2015-Mar-20 16:33N 50°49' W 001°06'0 0.0
2015-Mar-20 15:33N 50°49' W 001°06'0 0.0
2015-Mar-20 14:33N 50°49' W 001°06'0 0.0
2015-Mar-20 13:33N 50°49' W 001°06'0 0.0
2015-Mar-20 12:33N 50°49' W 001°06'0 0.0
2015-Mar-20 11:33N 50°49' W 001°06'0 0.0
2015-Mar-20 10:33N 50°49' W 001°06'0 0.0
2015-Mar-20 09:33N 50°49' W 001°06'0 0.0
2015-Mar-20 08:33N 50°49' W 001°06'0 0.1
2015-Mar-20 07:33N 50°49' W 001°06'1311.7
2015-Mar-20 06:27N 50°36' W 001°08'  

Dump ship's entire track history